createdAt,value
2022-09-20T00:01:08.040Z,79.41
2022-09-20T00:03:36.779Z,79.78
2022-09-20T00:06:07.531Z,80.47
2022-09-20T00:08:36.313Z,80.91
2022-09-20T00:11:06.692Z,80.61
2022-09-20T00:13:35.285Z,81.62
2022-09-20T00:16:06.268Z,82.16
2022-09-20T00:18:34.357Z,82.43
2022-09-20T00:21:02.359Z,81.62
2022-09-20T00:23:32.222Z,81.58
2022-09-20T00:26:01.857Z,81.94
2022-09-20T00:28:30.410Z,82.57
2022-09-20T00:30:58.501Z,82.66
2022-09-20T00:33:47.375Z,82.50
2022-09-20T00:36:14.493Z,82.64
2022-09-20T00:38:44.003Z,83.19
2022-09-20T00:41:12.308Z,82.62
2022-09-20T00:43:42.015Z,83.01
2022-09-20T00:46:20.921Z,82.66
2022-09-20T00:48:49.578Z,82.30
2022-09-20T00:51:19.467Z,82.60
2022-09-20T00:53:50.549Z,81.74
2022-09-20T00:56:22.330Z,82.12
2022-09-20T00:58:53.389Z,81.56
2022-09-20T01:01:21.721Z,81.54
2022-09-20T01:03:50.010Z,81.77
2022-09-20T01:06:18.290Z,82.42
2022-09-20T01:08:50.050Z,82.75
2022-09-20T01:11:18.231Z,83.16
2022-09-20T01:13:46.282Z,82.72
2022-09-20T01:16:15.588Z,82.51
2022-09-20T01:18:44.996Z,82.91
2022-09-20T01:21:13.409Z,83.12
2022-09-20T01:23:50.880Z,83.18
2022-09-20T01:26:34.473Z,83.58
2022-09-20T01:29:10.991Z,83.64
2022-09-20T01:31:44.312Z,83.17
2022-09-20T01:34:15.322Z,83.65
2022-09-20T01:36:46.278Z,83.62
2022-09-20T01:39:22.219Z,83.27
2022-09-20T01:41:54.343Z,82.58
2022-09-20T01:44:28.356Z,82.76
2022-09-20T01:47:03.255Z,82.47
2022-09-20T01:49:36.468Z,81.55
2022-09-20T01:52:31.183Z,81.53
2022-09-20T01:55:44.958Z,81.57
2022-09-20T01:59:19.803Z,82.13
2022-09-20T02:02:08.403Z,81.02
2022-09-20T02:05:06.266Z,81.35
2022-09-20T02:07:58.975Z,81.66
2022-09-20T02:10:39.582Z,81.83
2022-09-20T02:13:12.126Z,82.28
2022-09-20T02:16:11.273Z,81.81
2022-09-20T02:18:51.128Z,81.75
2022-09-20T02:21:25.783Z,81.94
2022-09-20T02:24:01.834Z,82.60
2022-09-20T02:26:37.977Z,82.47
2022-09-20T02:29:14.176Z,82.01
2022-09-20T02:31:53.814Z,82.56
2022-09-20T02:35:01.055Z,82.45
2022-09-20T02:37:54.693Z,83.11
2022-09-20T02:40:32.341Z,82.89
2022-09-20T02:43:05.987Z,83.43
2022-09-20T02:45:40.430Z,83.24
2022-09-20T02:48:08.642Z,82.46
2022-09-20T02:50:42.276Z,82.50
2022-09-20T02:53:24.259Z,82.14
2022-09-20T02:56:00.702Z,82.03
2022-09-20T02:58:38.217Z,82.68
2022-09-20T03:01:14.142Z,82.25
2022-09-20T03:03:48.914Z,81.49
2022-09-20T03:06:23.319Z,81.91
2022-09-20T03:08:57.939Z,82.08
2022-09-20T03:11:31.928Z,81.79
2022-09-20T03:14:16.121Z,82.29
2022-09-20T03:17:02.368Z,81.29
2022-09-20T03:19:52.797Z,82.11
2022-09-20T03:22:31.021Z,81.75
2022-09-20T03:25:29.080Z,82.04
2022-09-20T03:28:08.076Z,82.25
2022-09-20T03:30:47.760Z,81.52
2022-09-20T03:33:22.180Z,81.48
2022-09-20T03:36:06.038Z,80.99
2022-09-20T03:38:49.630Z,81.55
2022-09-20T03:41:30.270Z,81.01
2022-09-20T03:44:12.012Z,81.29
2022-09-20T03:46:45.562Z,80.64
2022-09-20T03:49:54.788Z,80.57
2022-09-20T03:52:40.727Z,80.86
2022-09-20T03:55:33.178Z,81.41
2022-09-20T03:58:10.543Z,81.58
2022-09-20T04:00:53.016Z,80.85
2022-09-20T04:03:32.147Z,80.83
2022-09-20T04:06:14.638Z,81.87
2022-09-20T04:08:57.589Z,81.82
2022-09-20T04:11:30.480Z,81.33
2022-09-20T04:14:11.191Z,81.82
2022-09-20T04:16:44.655Z,81.00
2022-09-20T04:19:17.721Z,82.44
2022-09-20T04:21:51.076Z,80.91
2022-09-20T04:24:24.032Z,81.29
2022-09-20T04:26:55.276Z,81.63
2022-09-20T04:29:35.156Z,81.74
2022-09-20T04:32:13.159Z,81.61
2022-09-20T04:35:01.859Z,82.06
2022-09-20T04:37:33.080Z,82.82
2022-09-20T04:40:10.353Z,81.73
2022-09-20T04:43:18.472Z,82.35
2022-09-20T04:46:15.704Z,81.68
2022-09-20T04:49:15.452Z,81.82
2022-09-20T04:52:04.063Z,81.99
2022-09-20T04:55:06.071Z,82.22
2022-09-20T04:57:53.924Z,82.43
2022-09-20T05:00:24.096Z,81.97
2022-09-20T05:03:27.771Z,82.10
2022-09-20T05:06:15.666Z,82.80
2022-09-20T05:09:03.019Z,81.93
2022-09-20T05:11:51.385Z,81.87
2022-09-20T05:14:44.043Z,81.94
2022-09-20T05:17:26.510Z,82.42
2022-09-20T05:20:12.003Z,82.01
2022-09-20T05:23:09.616Z,82.08
2022-09-20T05:25:45.047Z,81.98
2022-09-20T05:28:19.256Z,82.44
2022-09-20T05:30:50.383Z,82.02
2022-09-20T05:33:23.818Z,81.83
2022-09-20T05:36:03.159Z,81.37
2022-09-20T05:38:37.897Z,81.99
2022-09-20T05:41:14.104Z,81.85
2022-09-20T05:43:51.416Z,81.26
2022-09-20T05:46:26.957Z,81.62
2022-09-20T05:49:21.865Z,81.66
2022-09-20T05:52:06.651Z,82.00
2022-09-20T05:54:44.224Z,81.27
2022-09-20T05:57:20.511Z,82.10
2022-09-20T05:59:58.089Z,82.07
2022-09-20T06:02:36.265Z,81.82
2022-09-20T06:05:28.849Z,82.32
2022-09-20T06:08:20.141Z,82.28
2022-09-20T06:11:00.866Z,82.01
2022-09-20T06:14:03.750Z,82.84
2022-09-20T06:16:41.398Z,82.93
2022-09-20T06:19:17.458Z,83.03
2022-09-20T06:21:53.006Z,83.51
2022-09-20T06:24:31.655Z,82.87
2022-09-20T06:27:04.036Z,84.14
2022-09-20T06:29:34.737Z,83.37
2022-09-20T06:32:03.116Z,83.46
2022-09-20T06:34:31.492Z,83.30
2022-09-20T06:37:28.583Z,83.42
2022-09-20T06:40:19.448Z,83.98
2022-09-20T06:42:47.728Z,82.89
2022-09-20T06:45:15.682Z,83.37
2022-09-20T06:47:43.680Z,83.06
2022-09-20T06:50:16.895Z,83.55
2022-09-20T06:52:46.723Z,84.29
2022-09-20T06:55:20.104Z,84.02
2022-09-20T06:57:48.135Z,83.87
2022-09-20T07:00:17.138Z,84.59
2022-09-20T07:02:45.368Z,83.95
2022-09-20T07:05:15.323Z,84.55
2022-09-20T07:07:44.031Z,84.35
2022-09-20T07:10:12.471Z,84.88
2022-09-20T07:12:42.231Z,84.65
2022-09-20T07:15:11.226Z,84.64
2022-09-20T07:17:39.215Z,84.95
2022-09-20T07:20:08.139Z,86.30
2022-09-20T07:22:36.171Z,86.21
2022-09-20T07:25:04.274Z,86.56
2022-09-20T07:27:32.265Z,85.30
2022-09-20T07:30:02.357Z,84.50
2022-09-20T07:32:31.686Z,84.93
2022-09-20T07:35:01.924Z,84.13
2022-09-20T07:37:32.783Z,84.83
2022-09-20T07:40:03.642Z,84.92
2022-09-20T07:42:31.750Z,85.07
2022-09-20T07:45:02.891Z,83.72
2022-09-20T07:47:33.523Z,83.52
2022-09-20T07:50:01.531Z,83.80
2022-09-20T07:52:29.544Z,82.95
2022-09-20T07:54:57.572Z,82.88
2022-09-20T07:57:25.577Z,81.01
2022-09-20T07:59:53.578Z,81.26
2022-09-20T08:02:22.926Z,81.51
2022-09-20T08:04:50.931Z,81.62
2022-09-20T08:07:18.998Z,82.49
2022-09-20T08:09:47.974Z,81.23
2022-09-20T08:15:06.526Z,80.93
2022-09-20T08:17:40.339Z,79.14
2022-09-20T08:20:09.732Z,79.29
2022-09-20T08:22:39.322Z,79.13
2022-09-20T08:25:08.370Z,78.43
2022-09-20T08:27:37.231Z,79.31
2022-09-20T08:30:06.387Z,79.42
2022-09-20T08:32:34.383Z,79.35
2022-09-20T08:35:04.629Z,79.41
2022-09-20T08:37:32.615Z,77.02
2022-09-20T08:40:00.738Z,78.17
2022-09-20T08:42:36.633Z,76.70
2022-09-20T08:45:22.305Z,78.07
2022-09-20T08:47:57.803Z,77.69
2022-09-20T08:50:28.803Z,76.92
2022-09-20T08:53:01.257Z,75.60
2022-09-20T08:55:36.374Z,73.89
2022-09-20T08:58:08.436Z,74.97
2022-09-20T09:00:38.518Z,74.11
2022-09-20T09:03:08.303Z,74.42
2022-09-20T09:05:40.431Z,74.74
2022-09-20T09:08:16.228Z,74.71
2022-09-20T09:10:46.802Z,74.09
2022-09-20T09:13:21.948Z,73.99
2022-09-20T09:15:54.426Z,72.02
2022-09-20T09:18:22.416Z,70.33
2022-09-20T09:20:51.822Z,72.15
2022-09-20T09:23:26.388Z,73.37
2022-09-20T09:25:55.101Z,73.05
2022-09-20T09:28:25.651Z,71.63
2022-09-20T09:30:54.244Z,71.59
2022-09-20T09:33:28.121Z,70.25
2022-09-20T09:36:00.278Z,70.71
2022-09-20T09:38:30.211Z,72.75
2022-09-20T09:40:59.323Z,71.64
2022-09-20T09:43:30.091Z,72.22
2022-09-20T09:46:18.247Z,71.99
2022-09-20T09:48:50.002Z,69.84
2022-09-20T09:51:23.154Z,68.10
2022-09-20T09:54:19.864Z,65.28
2022-09-20T09:56:57.410Z,66.11
2022-09-20T09:59:34.483Z,69.19
2022-09-20T10:02:13.006Z,68.38
2022-09-20T10:04:45.770Z,68.24
2022-09-20T10:07:21.413Z,67.17
2022-09-20T10:10:00.148Z,68.63
2022-09-20T10:12:39.453Z,66.49
2022-09-20T10:15:25.289Z,65.35
2022-09-20T10:18:03.266Z,65.84
2022-09-20T10:20:45.026Z,64.47
2022-09-20T10:23:45.446Z,64.99
2022-09-20T10:26:24.256Z,67.36
2022-09-20T10:28:58.785Z,65.88
2022-09-20T10:31:43.936Z,63.67
2022-09-20T10:34:40.765Z,66.29
2022-09-20T10:37:14.665Z,64.34
2022-09-20T10:39:46.141Z,64.32
2022-09-20T10:42:40.634Z,62.97
2022-09-20T10:45:29.529Z,66.59
2022-09-20T10:48:07.258Z,63.84
2022-09-20T10:50:43.654Z,65.50
2022-09-20T10:53:21.359Z,66.06
2022-09-20T10:55:54.469Z,64.05
2022-09-20T10:58:54.240Z,65.05
2022-09-20T11:01:25.084Z,65.40
2022-09-20T11:04:24.273Z,63.62
2022-09-20T11:06:57.305Z,59.47
2022-09-20T11:09:28.652Z,58.39
2022-09-20T11:12:04.259Z,61.48
2022-09-20T11:14:36.068Z,59.29
2022-09-20T11:17:08.503Z,59.88
2022-09-20T11:19:42.355Z,60.97
2022-09-20T11:22:13.350Z,59.35
2022-09-20T11:24:44.982Z,59.79
2022-09-20T11:27:18.551Z,58.20
2022-09-20T11:29:51.143Z,59.46
2022-09-20T11:32:23.565Z,61.53
2022-09-20T11:34:54.560Z,61.77
2022-09-20T11:37:24.098Z,60.75
2022-09-20T11:39:55.503Z,59.76
2022-09-20T11:42:27.416Z,62.58
2022-09-20T11:44:55.775Z,64.16
2022-09-20T11:47:49.753Z,61.63
2022-09-20T11:50:41.466Z,60.12
2022-09-20T11:53:18.524Z,56.55
2022-09-20T11:55:50.452Z,58.93
2022-09-20T11:58:22.485Z,55.13
2022-09-20T12:00:54.351Z,56.97
2022-09-20T12:03:27.337Z,52.34
2022-09-20T12:05:59.498Z,52.92
2022-09-20T12:08:30.647Z,55.76
2022-09-20T12:11:01.841Z,54.66
2022-09-20T12:13:32.935Z,55.25
2022-09-20T12:16:03.527Z,55.53
2022-09-20T12:18:50.296Z,55.39
2022-09-20T12:21:20.803Z,55.89
2022-09-20T12:24:19.614Z,54.14
2022-09-20T12:26:49.062Z,55.66
2022-09-20T12:29:57.378Z,54.20
2022-09-20T12:32:48.282Z,56.07
2022-09-20T12:35:59.348Z,53.93
2022-09-20T12:38:37.589Z,53.96
2022-09-20T12:41:14.524Z,54.58
2022-09-20T12:43:53.691Z,56.58
2022-09-20T12:46:29.205Z,54.16
2022-09-20T12:49:47.929Z,54.98
2022-09-20T12:52:53.872Z,52.95
2022-09-20T12:55:32.078Z,54.40
2022-09-20T12:58:03.048Z,56.02
2022-09-20T13:00:38.077Z,54.49
2022-09-20T13:03:24.025Z,54.71
2022-09-20T13:06:25.241Z,54.96
2022-09-20T13:08:57.965Z,57.15
2022-09-20T13:11:30.506Z,57.25
2022-09-20T13:14:00.136Z,57.70
2022-09-20T13:16:33.224Z,57.33
2022-09-20T13:19:05.310Z,59.71
2022-09-20T13:21:35.454Z,59.64
2022-09-20T13:24:05.088Z,58.77
2022-09-20T13:26:37.089Z,59.09
2022-09-20T13:29:05.611Z,58.40
2022-09-20T13:31:35.860Z,58.19
2022-09-20T13:34:22.086Z,56.33
2022-09-20T13:36:56.226Z,57.35
2022-09-20T13:39:32.615Z,60.41
2022-09-20T13:42:03.282Z,60.61
2022-09-20T13:44:34.435Z,61.76
2022-09-20T13:47:02.560Z,61.77
2022-09-20T13:49:33.201Z,61.58
2022-09-20T13:52:16.880Z,62.11
2022-09-20T13:54:46.187Z,59.48
2022-09-20T13:57:18.177Z,59.80
2022-09-20T13:59:47.237Z,55.94
2022-09-20T14:02:22.618Z,58.64
2022-09-20T14:04:53.087Z,58.91
2022-09-20T14:07:21.306Z,59.77
2022-09-20T14:09:51.710Z,57.04
2022-09-20T14:12:20.338Z,60.26
2022-09-20T14:14:48.699Z,60.18
2022-09-20T14:17:19.251Z,58.63
2022-09-20T14:19:50.012Z,59.75
2022-09-20T14:22:20.851Z,61.10
2022-09-20T14:25:01.376Z,60.12
2022-09-20T14:27:31.275Z,58.41
2022-09-20T14:29:59.795Z,59.00
2022-09-20T14:32:43.029Z,58.16
2022-09-20T14:35:16.784Z,59.60
2022-09-20T14:37:46.413Z,60.64
2022-09-20T14:40:23.080Z,58.27
2022-09-20T14:42:56.275Z,56.62
2022-09-20T14:45:27.748Z,58.56
2022-09-20T14:48:10.122Z,57.29
2022-09-20T14:50:39.851Z,58.13
2022-09-20T14:53:23.659Z,60.08
2022-09-20T14:56:01.612Z,60.97
2022-09-20T14:58:29.931Z,60.37
2022-09-20T15:01:01.658Z,61.23
2022-09-20T15:03:32.474Z,62.87
2022-09-20T15:06:00.565Z,63.89
2022-09-20T15:08:28.845Z,61.84
2022-09-20T15:10:56.894Z,62.49
2022-09-20T15:13:26.396Z,62.07
2022-09-20T15:15:55.191Z,60.37
2022-09-20T15:18:26.293Z,62.12
2022-09-20T15:20:55.315Z,62.84
2022-09-20T15:23:23.445Z,62.23
2022-09-20T15:25:52.857Z,63.14
2022-09-20T15:28:21.354Z,63.36
2022-09-20T15:30:52.103Z,62.61
2022-09-20T15:33:21.064Z,59.71
2022-09-20T15:35:49.529Z,60.34
2022-09-20T15:38:18.730Z,60.65
2022-09-20T15:40:48.241Z,62.40
2022-09-20T15:43:18.063Z,61.83
2022-09-20T15:45:51.495Z,60.79
2022-09-20T15:48:21.545Z,60.82
2022-09-20T15:51:11.350Z,62.55
2022-09-20T15:53:45.069Z,62.31
2022-09-20T15:56:17.527Z,61.78
2022-09-20T15:58:47.227Z,63.51
2022-09-20T16:01:17.740Z,62.23
2022-09-20T16:03:47.101Z,62.87
2022-09-20T16:06:15.822Z,63.96
2022-09-20T16:08:44.297Z,64.51
2022-09-20T16:11:18.207Z,63.25
2022-09-20T16:13:48.615Z,64.04
2022-09-20T16:16:18.050Z,63.77
2022-09-20T16:19:03.806Z,64.04
2022-09-20T16:21:32.033Z,62.84
2022-09-20T16:24:00.408Z,63.25
2022-09-20T16:26:31.652Z,63.25
2022-09-20T16:28:59.866Z,63.58
2022-09-20T16:31:39.941Z,63.50
2022-09-20T16:34:12.799Z,64.41
2022-09-20T16:36:43.298Z,64.25
2022-09-20T16:39:12.487Z,64.33
2022-09-20T16:41:40.662Z,65.51
2022-09-20T16:44:08.838Z,65.39
2022-09-20T16:46:38.236Z,65.39
2022-09-20T16:49:09.412Z,65.27
2022-09-20T16:51:39.138Z,64.08
2022-09-20T16:54:11.697Z,65.10
2022-09-20T16:56:41.394Z,65.05
2022-09-20T16:59:10.618Z,64.60
2022-09-20T17:01:40.632Z,65.17
2022-09-20T17:04:09.504Z,64.57
2022-09-20T17:06:39.385Z,64.91
2022-09-20T17:09:08.042Z,64.61
2022-09-20T17:11:38.132Z,65.84
2022-09-20T17:14:06.742Z,65.59
2022-09-20T17:16:36.320Z,65.64
2022-09-20T17:19:08.756Z,65.57
2022-09-20T17:21:38.745Z,65.75
2022-09-20T17:24:07.975Z,66.11
2022-09-20T17:26:38.289Z,65.80
2022-09-20T17:29:08.087Z,66.03
2022-09-20T17:31:37.830Z,65.72
2022-09-20T17:34:09.912Z,65.81
2022-09-20T17:36:40.231Z,65.63
2022-09-20T17:39:10.898Z,65.60
2022-09-20T17:41:39.265Z,65.90
2022-09-20T17:44:09.787Z,66.45
2022-09-20T17:46:38.802Z,66.79
2022-09-20T17:49:09.490Z,67.20
2022-09-20T17:51:39.699Z,67.37
2022-09-20T17:54:08.486Z,67.37
2022-09-20T17:56:37.126Z,67.14
2022-09-20T17:59:06.491Z,68.19
2022-09-20T18:01:36.161Z,68.12
2022-09-20T18:04:05.841Z,68.35
2022-09-20T18:06:36.707Z,68.14
2022-09-20T18:09:06.832Z,68.68
2022-09-20T18:11:36.718Z,68.94
2022-09-20T18:14:06.533Z,69.27
2022-09-20T18:16:35.176Z,69.94
2022-09-20T18:19:03.344Z,70.02
2022-09-20T18:21:33.461Z,70.10
2022-09-20T18:24:03.639Z,70.08
2022-09-20T18:26:32.828Z,70.36
2022-09-20T18:29:02.838Z,70.75
2022-09-20T18:31:32.373Z,70.83
2022-09-20T18:34:01.686Z,71.59
2022-09-20T18:36:30.484Z,71.99
2022-09-20T18:38:59.519Z,72.13
2022-09-20T18:41:31.370Z,71.46
2022-09-20T18:43:59.936Z,71.44
2022-09-20T18:46:30.850Z,71.73
2022-09-20T18:49:02.101Z,72.39
2022-09-20T18:51:30.310Z,72.09
2022-09-20T18:53:58.897Z,72.10
2022-09-20T18:56:29.801Z,72.55
2022-09-20T18:58:59.378Z,72.98
2022-09-20T19:02:03.231Z,73.41
2022-09-20T19:04:53.226Z,73.48
2022-09-20T19:07:26.809Z,73.12
2022-09-20T19:09:58.718Z,73.88
2022-09-20T19:12:33.651Z,73.95
2022-09-20T19:15:13.124Z,74.22
2022-09-20T19:17:50.600Z,73.63
2022-09-20T19:20:23.153Z,74.09
2022-09-20T19:22:59.005Z,74.36
2022-09-20T19:25:30.678Z,74.74
2022-09-20T19:28:00.395Z,74.09
2022-09-20T19:30:29.178Z,74.44
2022-09-20T19:32:57.799Z,74.27
2022-09-20T19:35:31.335Z,74.54
2022-09-20T19:38:05.276Z,74.52
2022-09-20T19:40:41.937Z,74.84
2022-09-20T19:43:23.819Z,75.50
2022-09-20T19:45:57.993Z,75.15
2022-09-20T19:48:33.938Z,75.22
2022-09-20T19:51:04.431Z,75.12
2022-09-20T19:53:33.196Z,74.69
2022-09-20T19:56:04.898Z,75.60
2022-09-20T19:58:35.118Z,75.52
2022-09-20T20:01:04.659Z,75.51
2022-09-20T20:03:33.337Z,76.62
2022-09-20T20:06:07.875Z,76.27
2022-09-20T20:08:39.759Z,76.10
2022-09-20T20:11:13.688Z,75.48
2022-09-20T20:14:07.427Z,76.38
2022-09-20T20:16:44.344Z,76.45
2022-09-20T20:19:33.935Z,76.39
2022-09-20T20:22:08.491Z,77.07
2022-09-20T20:24:38.814Z,77.77
2022-09-20T20:27:06.810Z,77.76
2022-09-20T20:29:36.155Z,77.30
2022-09-20T20:32:04.221Z,76.83
2022-09-20T20:34:32.794Z,77.28
2022-09-20T20:37:01.427Z,77.62
2022-09-20T20:39:31.606Z,77.06
2022-09-20T20:42:02.270Z,77.08
2022-09-20T20:44:31.034Z,77.34
2022-09-20T20:47:00.354Z,77.28
2022-09-20T20:49:28.354Z,76.85
2022-09-20T20:51:57.501Z,76.98
2022-09-20T20:54:27.191Z,76.09
2022-09-20T20:56:55.155Z,75.98
2022-09-20T20:59:24.637Z,75.98
2022-09-20T21:01:52.755Z,76.82
2022-09-20T21:04:23.904Z,76.81
2022-09-20T21:06:51.976Z,76.71
2022-09-20T21:09:20.036Z,76.66
2022-09-20T21:11:48.492Z,76.25
2022-09-20T21:14:16.550Z,76.76
2022-09-20T21:16:45.084Z,76.66
2022-09-20T21:19:15.027Z,76.95
2022-09-20T21:21:46.066Z,78.05
2022-09-20T21:24:17.275Z,77.07
2022-09-20T21:26:46.081Z,77.09
2022-09-20T21:29:15.708Z,77.32
2022-09-20T21:31:45.201Z,76.66
2022-09-20T21:34:15.433Z,77.25
2022-09-20T21:36:45.060Z,76.05
2022-09-20T21:39:13.440Z,77.27
2022-09-20T21:41:42.201Z,77.39
2022-09-20T21:44:12.134Z,77.99
2022-09-20T21:46:41.634Z,78.67
2022-09-20T21:49:10.928Z,77.44
2022-09-20T21:51:39.559Z,77.52
2022-09-20T21:54:09.133Z,76.88
2022-09-20T21:56:38.219Z,77.69
2022-09-20T21:59:07.731Z,77.58
2022-09-20T22:01:37.341Z,78.25
2022-09-20T22:04:07.028Z,77.74
2022-09-20T22:06:36.375Z,77.13
2022-09-20T22:09:06.079Z,77.46
2022-09-20T22:11:38.869Z,77.34
2022-09-20T22:14:07.463Z,78.18
2022-09-20T22:16:36.842Z,78.45
2022-09-20T22:19:05.844Z,77.98
2022-09-20T22:21:36.715Z,78.03
2022-09-20T22:24:05.940Z,78.26
2022-09-20T22:26:37.115Z,77.48
2022-09-20T22:29:06.430Z,77.39
2022-09-20T22:31:36.278Z,77.16
2022-09-20T22:34:06.089Z,77.81
2022-09-20T22:36:35.427Z,78.21
2022-09-20T22:39:04.575Z,78.32
2022-09-20T22:41:32.537Z,78.76
2022-09-20T22:44:02.140Z,78.05
2022-09-20T22:46:31.406Z,77.93
2022-09-20T22:48:59.525Z,78.44
2022-09-20T22:51:29.346Z,78.68
2022-09-20T22:53:57.498Z,79.00
2022-09-20T22:56:29.479Z,79.38
2022-09-20T22:58:59.991Z,79.63
2022-09-20T23:01:31.422Z,78.95
2022-09-20T23:04:00.943Z,79.39
2022-09-20T23:06:30.797Z,78.94
2022-09-20T23:09:00.674Z,79.64
2022-09-20T23:11:29.488Z,79.80
2022-09-20T23:13:59.354Z,79.15
2022-09-20T23:16:30.931Z,79.16
2022-09-20T23:19:00.373Z,78.51
2022-09-20T23:21:28.958Z,78.85
2022-09-20T23:23:58.635Z,79.18
2022-09-20T23:26:27.705Z,78.52
2022-09-20T23:28:58.224Z,78.65
2022-09-20T23:31:26.750Z,78.84
2022-09-20T23:33:57.755Z,78.33
2022-09-20T23:36:27.447Z,79.59
2022-09-20T23:38:55.899Z,79.07
2022-09-20T23:41:26.406Z,79.49
2022-09-20T23:43:54.882Z,79.60
2022-09-20T23:46:24.393Z,80.50
2022-09-20T23:48:52.566Z,79.81
2022-09-20T23:51:23.875Z,78.68
2022-09-20T23:53:52.863Z,78.43
2022-09-20T23:56:21.310Z,79.09
2022-09-20T23:58:50.189Z,78.89
